KCDW/CDW METAR and TAF weather

Enter ICAO airport designator
Station Type Date Time Source
KCDW METAR 2021/07/29 16:53 UTC NOAA

KCDW 291653Z VRB04KT 10SM FEW030 OVC044 26/18 A2995 RMK AO2 SLP146 T02610183


Station Type Date Time Source
KCDW Decoded METAR 2021/07/29 16:53 UTC NOAA

CALDWELL ESSEX COUNTY AIRPORT , NJ, United States (KCDW) 40-53N 074-17W 64M
Jul 29, 2021 - 12:53 PM EDT / 2021.07.29 1653 UTC
Wind: Variable at 5 MPH (4 KT):0
Visibility: 10 mile(s):0
Sky conditions: overcast
Temperature: 79.0 F (26.1 C)
Dew Point: 64.9 F (18.3 C)
Relative Humidity: 62%
Pressure (altimeter): 29.95 in. Hg (1014 hPa)
ob: KCDW 291653Z VRB04KT 10SM FEW030 OVC044 26/18 A2995 RMK AO2 SLP146 T02610183
cycle: 17

Station Type Date Time Source
KCDW TAF UTC NOAA

Error!

Example: see airport list